This is the latest recevied weather packets stored in our database for station/object KB3MVG-13. If no packets are shown the sender has not sent any weather packets the latest 10 day(s).
| Time | Temp. | Humidity | Pressure | Rain* | Wind** | Luminosity | Snow |
|---|---|---|---|---|---|---|---|
| 1778157317 | 10° C | 33% | 1023 hPa | 0 mm | - | 84 W/m² | - |
| 1778152516 | 9.44° C | 30% | 1022.7 hPa | 0 mm | - | 0 W/m² | - |
| 1778151916 | 9.44° C | 31% | 1022.9 hPa | 0 mm | - | 0 W/m² | - |
| 1778150116 | 8.33° C | 34% | 1022.2 hPa | 0 mm | - | 0 W/m² | - |
| 1778145916 | 8.89° C | 29% | 1023.3 hPa | 0 mm | - | 0 W/m² | - |
| 1778145316 | 9.44° C | 28% | 1023.6 hPa | 0 mm | - | 0 W/m² | - |
| 1778143516 | 8.89° C | 27% | 1023.3 hPa | 0 mm | - | 0 W/m² | - |
| 1778139936 | 7.22° C | 32% | 1023.9 hPa | 0 mm | - | 0 W/m² | - |
| 1778135716 | 0.56° C | 85% | 1022 hPa | 0 mm | - | 0 W/m² | - |
| 1778134516 | 0.56° C | 92% | 1021.9 hPa | 0 mm | - | 0 W/m² | - |
| 1778132117 | 1.11° C | 98% | 1022.5 hPa | 0 mm | - | 0 W/m² | - |
| 1778131517 | 1.11° C | 99% | 1022.7 hPa | 0 mm | - | 0 W/m² | - |
| 1778130337 | 0.56° C | 99% | 1022.2 hPa | 0 mm | - | 0 W/m² | - |
| 1778125515 | 1.11° C | 100% | 1022.1 hPa | 0 mm | - | 0 W/m² | - |
| 1778124937 | 1.11° C | 100% | 1022.2 hPa | 0 mm | - | 0 W/m² | - |
| 1778124317 | 1.11° C | 100% | 1022.1 hPa | 0 mm | - | 0 W/m² | - |
| 1778122516 | 0.56° C | 100% | 1021.9 hPa | 0 mm | - | 0 W/m² | - |
| 1778108716 | 1.11° C | 100% | 1022.4 hPa | 0.25 mm | - | 494 W/m² | - |
| 1778107516 | 1.11° C | 100% | 1022.4 hPa | 0.25 mm | - | 581 W/m² | - |
| 1778106916 | 1.11° C | 100% | 1022.6 hPa | 0.51 mm | - | 267 W/m² | - |
| 1778106316 | 1.11° C | 100% | 1022.8 hPa | 0.51 mm | - | 651 W/m² | - |
| 1778104516 | 0.56° C | 100% | 1023.1 hPa | 1.52 mm | - | 483 W/m² | - |
| 1778103916 | 0.56° C | 100% | 1023.1 hPa | 1.78 mm | - | 661 W/m² | - |
| 1778102716 | 0.56° C | 100% | 1023.4 hPa | 2.29 mm | - | 818 W/m² | - |
| 1778100336 | 0.56° C | 100% | 1023.8 hPa | 1.02 mm | - | 536 W/m² | - |
* Rain latest hour (hover to see other rain measurements)
** Current wind speed in m/s (hover to see current wind gust speed)